createdAt,value
2022-08-05T00:00:43.089Z,27.00
2022-08-05T00:03:15.670Z,27.00
2022-08-05T00:06:05.410Z,27.00
2022-08-05T00:08:34.879Z,26.90
2022-08-05T00:11:20.262Z,26.90
2022-08-05T00:13:53.200Z,26.80
2022-08-05T00:16:36.365Z,26.80
2022-08-05T00:19:09.106Z,26.90
2022-08-05T00:21:37.191Z,26.90
2022-08-05T00:24:11.135Z,27.00
2022-08-05T00:26:50.984Z,27.00
2022-08-05T00:29:25.276Z,27.00
2022-08-05T00:32:12.837Z,27.30
2022-08-05T00:35:05.124Z,27.30
2022-08-05T00:37:51.253Z,27.40
2022-08-05T00:40:26.827Z,27.30
2022-08-05T00:42:57.385Z,27.20
2022-08-05T00:45:38.735Z,27.20
2022-08-05T00:48:14.887Z,27.00
2022-08-05T00:50:46.053Z,27.00
2022-08-05T00:53:44.847Z,27.10
2022-08-05T00:56:08.194Z,27.10
2022-08-05T00:58:37.161Z,27.00
2022-08-05T01:01:08.875Z,27.00
2022-08-05T01:03:38.410Z,26.90
2022-08-05T01:06:11.193Z,26.90
2022-08-05T01:08:44.669Z,26.90
2022-08-05T01:11:33.413Z,26.80
2022-08-05T01:14:16.564Z,26.80
2022-08-05T01:17:02.606Z,26.70
2022-08-05T01:20:00.845Z,26.80
2022-08-05T01:22:48.582Z,26.80
2022-08-05T01:25:39.783Z,26.70
2022-08-05T01:28:33.630Z,26.50
2022-08-05T01:31:19.385Z,26.40
2022-08-05T01:34:09.540Z,26.40
2022-08-05T01:36:47.010Z,26.20
2022-08-05T01:39:46.593Z,26.20
2022-08-05T01:42:09.752Z,26.20
2022-08-05T01:44:39.333Z,26.00
2022-08-05T01:47:09.615Z,25.90
2022-08-05T01:50:00.035Z,25.70
2022-08-05T01:52:29.664Z,25.80
2022-08-05T01:55:01.917Z,26.00
2022-08-05T01:58:29.709Z,25.80
2022-08-05T02:00:29.989Z,25.80
2022-08-05T02:03:31.948Z,25.60
2022-08-05T02:06:37.599Z,25.50
2022-08-05T02:08:58.268Z,25.50
2022-08-05T02:11:34.067Z,25.50
2022-08-05T02:14:12.741Z,25.50
2022-08-05T02:17:29.674Z,25.50
2022-08-05T02:20:04.640Z,25.50
2022-08-05T02:22:39.293Z,25.60
2022-08-05T02:25:17.847Z,25.60
2022-08-05T02:27:59.442Z,25.50
2022-08-05T02:30:34.505Z,25.30
2022-08-05T02:33:03.894Z,25.40
2022-08-05T02:35:37.692Z,25.50
2022-08-05T02:38:09.412Z,25.50
2022-08-05T02:40:42.025Z,25.20
2022-08-05T02:43:15.511Z,25.10
2022-08-05T02:45:52.672Z,25.30
2022-08-05T02:48:29.427Z,25.30
2022-08-05T02:51:02.799Z,25.10
2022-08-05T02:53:39.456Z,25.20
2022-08-05T02:56:15.713Z,25.30
2022-08-05T02:58:51.287Z,25.30
2022-08-05T03:01:24.875Z,25.30
2022-08-05T03:04:08.901Z,25.20
2022-08-05T03:06:53.821Z,25.10
2022-08-05T03:09:26.889Z,25.10
2022-08-05T03:12:05.339Z,25.30
2022-08-05T03:14:33.056Z,25.40
2022-08-05T03:17:00.868Z,25.30
2022-08-05T03:19:33.993Z,25.30
2022-08-05T03:22:05.139Z,25.20
2022-08-05T03:24:47.101Z,25.30
2022-08-05T03:27:16.091Z,25.30
2022-08-05T03:29:45.256Z,25.30
2022-08-05T03:32:32.115Z,25.10
2022-08-05T03:35:01.161Z,25.00
2022-08-05T03:37:37.750Z,24.90
2022-08-05T03:40:15.355Z,24.90
2022-08-05T03:42:52.897Z,24.90
2022-08-05T03:45:23.227Z,25.10
2022-08-05T03:47:56.873Z,25.30
2022-08-05T03:50:33.907Z,25.30
2022-08-05T03:54:59.130Z,25.50
2022-08-05T03:56:26.906Z,25.30
2022-08-05T03:59:03.016Z,25.30
2022-08-05T04:01:34.402Z,25.10
2022-08-05T04:04:09.819Z,25.10
2022-08-05T04:06:47.638Z,25.10
2022-08-05T04:09:20.347Z,25.20
2022-08-05T04:11:56.369Z,25.30
2022-08-05T04:14:30.536Z,25.10
2022-08-05T04:17:03.104Z,25.10
2022-08-05T04:19:31.355Z,24.90
2022-08-05T04:22:10.039Z,24.80
2022-08-05T04:24:43.946Z,24.80
2022-08-05T04:27:14.138Z,24.90
2022-08-05T04:29:43.277Z,24.90
2022-08-05T04:32:11.087Z,25.10
2022-08-05T04:34:42.868Z,25.00
2022-08-05T04:37:11.490Z,25.00
2022-08-05T04:39:40.609Z,24.90
2022-08-05T04:42:09.076Z,24.80
2022-08-05T04:44:37.213Z,24.70
2022-08-05T04:47:09.517Z,24.80
2022-08-05T04:50:03.023Z,24.90
2022-08-05T04:52:28.426Z,25.00
2022-08-05T04:54:57.653Z,25.30
2022-08-05T04:57:29.308Z,25.50
2022-08-05T04:59:58.654Z,25.50
2022-08-05T05:02:36.433Z,25.40
2022-08-05T05:05:26.409Z,25.50
2022-08-05T05:08:01.166Z,25.70
2022-08-05T05:10:42.286Z,25.70
2022-08-05T05:13:23.820Z,25.70
2022-08-05T05:15:56.689Z,25.60
2022-08-05T05:18:33.322Z,25.80
2022-08-05T05:21:03.776Z,25.90
2022-08-05T05:24:02.044Z,26.10
2022-08-05T05:26:19.766Z,26.30
2022-08-05T05:28:57.058Z,26.60
2022-08-05T05:31:25.164Z,26.80
2022-08-05T05:34:01.867Z,26.80
2022-08-05T05:36:30.965Z,26.80
2022-08-05T05:38:59.658Z,26.80
2022-08-05T05:41:40.932Z,26.90
2022-08-05T05:44:35.650Z,26.90
2022-08-05T05:46:58.337Z,27.00
2022-08-05T05:49:32.430Z,27.20
2022-08-05T05:52:01.130Z,27.20
2022-08-05T05:54:50.404Z,27.40
2022-08-05T05:57:20.099Z,27.40
2022-08-05T05:59:48.920Z,27.70
2022-08-05T06:02:17.354Z,27.90
2022-08-05T06:05:01.208Z,27.90
2022-08-05T06:07:42.002Z,28.00
2022-08-05T06:10:18.921Z,28.10
2022-08-05T06:12:46.675Z,28.10
2022-08-05T06:15:24.045Z,28.30
2022-08-05T06:17:54.197Z,28.30
2022-08-05T06:20:22.608Z,28.40
2022-08-05T06:22:50.438Z,28.50
2022-08-05T06:25:24.332Z,28.70
2022-08-05T06:28:11.583Z,28.70
2022-08-05T06:30:41.333Z,28.80
2022-08-05T06:33:10.070Z,29.00
2022-08-05T06:36:07.341Z,29.00
2022-08-05T06:38:36.456Z,29.30
2022-08-05T06:41:07.969Z,29.40
2022-08-05T06:43:58.967Z,29.40
2022-08-05T06:46:30.052Z,29.50
2022-08-05T06:49:01.293Z,29.70
2022-08-05T06:51:31.343Z,29.70
2022-08-05T06:54:01.704Z,29.80
2022-08-05T06:56:34.261Z,30.00
2022-08-05T06:59:09.434Z,30.10
2022-08-05T07:01:41.494Z,30.10
2022-08-05T07:04:10.493Z,30.20
2022-08-05T07:06:38.378Z,30.30
2022-08-05T07:09:06.024Z,30.50
2022-08-05T07:11:37.340Z,30.50
2022-08-05T07:14:29.284Z,30.60
2022-08-05T07:17:59.179Z,30.70
2022-08-05T07:22:42.430Z,30.90
2022-08-05T07:25:55.429Z,30.90
2022-08-05T07:28:04.176Z,30.80
2022-08-05T07:30:38.806Z,30.80
2022-08-05T07:33:15.686Z,30.70
2022-08-05T07:36:04.909Z,30.70
2022-08-05T07:38:43.412Z,30.90
2022-08-05T07:42:08.400Z,31.00
2022-08-05T07:44:14.274Z,31.00
2022-08-05T07:46:49.735Z,31.10
2022-08-05T07:49:19.188Z,31.00
2022-08-05T07:51:53.011Z,31.10
2022-08-05T07:54:30.903Z,31.30
2022-08-05T07:57:22.539Z,31.30
2022-08-05T07:59:49.118Z,31.40
2022-08-05T08:02:17.853Z,31.50
2022-08-05T08:04:47.686Z,31.40
2022-08-05T08:07:22.098Z,31.50
2022-08-05T08:09:52.890Z,31.60
2022-08-05T08:12:35.083Z,31.60
2022-08-05T08:15:09.722Z,31.70
2022-08-05T08:17:52.375Z,31.80
2022-08-05T08:20:59.714Z,32.10
2022-08-05T08:24:01.043Z,32.10
2022-08-05T08:26:04.761Z,32.10
2022-08-05T08:28:37.192Z,32.30
2022-08-05T08:31:23.380Z,32.20
2022-08-05T08:33:55.087Z,32.20
2022-08-05T08:36:38.332Z,32.20
2022-08-05T08:39:15.463Z,32.20
2022-08-05T08:41:52.672Z,32.40
2022-08-05T08:45:22.849Z,32.40
2022-08-05T08:48:05.974Z,32.40
2022-08-05T08:50:31.044Z,32.50
2022-08-05T08:53:07.879Z,32.60
2022-08-05T08:56:03.626Z,32.70
2022-08-05T08:58:26.233Z,32.90
2022-08-05T09:01:08.635Z,33.00
2022-08-05T09:03:55.596Z,33.00
2022-08-05T09:06:28.260Z,33.10
2022-08-05T09:09:02.345Z,33.00
2022-08-05T09:11:51.698Z,32.80
2022-08-05T09:14:57.192Z,32.90
2022-08-05T09:17:16.077Z,32.90
2022-08-05T09:20:05.094Z,33.10
2022-08-05T09:23:07.870Z,33.30
2022-08-05T09:26:03.069Z,33.30
2022-08-05T09:28:32.654Z,33.20
2022-08-05T09:31:23.393Z,33.30
2022-08-05T09:34:06.369Z,33.40
2022-08-05T09:36:54.767Z,33.20
2022-08-05T09:39:39.239Z,33.20
2022-08-05T09:42:24.099Z,33.20
2022-08-05T09:45:03.373Z,33.20
2022-08-05T09:47:55.184Z,33.50
2022-08-05T09:50:44.064Z,33.70
2022-08-05T09:53:22.959Z,33.70
2022-08-05T09:56:04.543Z,33.70
2022-08-05T09:58:32.935Z,33.80
2022-08-05T10:01:13.286Z,33.90
2022-08-05T10:04:00.886Z,33.90
2022-08-05T10:06:29.176Z,34.10
2022-08-05T10:09:27.761Z,34.20
2022-08-05T10:12:30.199Z,34.30
2022-08-05T10:15:29.042Z,34.30
2022-08-05T10:18:17.302Z,34.30
2022-08-05T10:21:11.718Z,34.20
2022-08-05T10:23:55.802Z,34.30
2022-08-05T10:26:32.707Z,34.40
2022-08-05T10:29:01.629Z,34.40
2022-08-05T10:32:52.720Z,34.50
2022-08-05T10:34:17.431Z,34.40
2022-08-05T10:36:45.645Z,34.50
2022-08-05T10:40:03.219Z,34.70
2022-08-05T10:42:33.486Z,34.50
2022-08-05T10:45:21.311Z,34.50
2022-08-05T10:48:29.185Z,34.60
2022-08-05T10:51:06.185Z,34.70
2022-08-05T10:54:01.603Z,34.70
2022-08-05T10:56:49.501Z,35.00
2022-08-05T11:00:04.211Z,35.10
2022-08-05T11:02:34.953Z,35.20
2022-08-05T11:05:07.133Z,35.20
2022-08-05T11:08:01.792Z,35.40
2022-08-05T11:10:27.655Z,35.50
2022-08-05T11:12:57.120Z,35.50
2022-08-05T11:15:59.523Z,35.70
2022-08-05T11:18:32.732Z,35.50
2022-08-05T11:21:11.688Z,35.30
2022-08-05T11:24:03.812Z,35.30
2022-08-05T11:26:43.278Z,35.60
2022-08-05T11:29:36.008Z,35.90
2022-08-05T11:32:31.660Z,35.50
2022-08-05T11:34:59.824Z,35.80
2022-08-05T11:38:36.525Z,36.10
2022-08-05T11:41:01.001Z,36.10
2022-08-05T11:44:04.682Z,36.00
2022-08-05T11:46:33.596Z,36.10
2022-08-05T11:49:05.099Z,36.10
2022-08-05T11:51:43.785Z,36.10
2022-08-05T11:54:33.489Z,36.20
2022-08-05T11:57:07.550Z,36.30
2022-08-05T11:59:49.569Z,36.40
2022-08-05T12:02:24.249Z,36.30
2022-08-05T12:05:06.954Z,36.40
2022-08-05T12:08:07.374Z,36.30
2022-08-05T12:14:43.140Z,36.60
2022-08-05T12:18:04.135Z,36.80
2022-08-05T12:20:17.024Z,36.90
2022-08-05T12:23:09.678Z,36.80
2022-08-05T12:25:56.803Z,37.10
2022-08-05T12:28:36.916Z,36.80
2022-08-05T12:31:06.038Z,36.80
2022-08-05T12:33:36.527Z,37.00
2022-08-05T12:36:08.528Z,37.20
2022-08-05T12:38:41.325Z,37.40
2022-08-05T12:41:14.045Z,37.30
2022-08-05T12:43:50.817Z,37.00
2022-08-05T12:46:29.588Z,36.90
2022-08-05T12:48:59.031Z,37.00
2022-08-05T12:52:14.395Z,37.10
2022-08-05T12:54:23.558Z,37.30
2022-08-05T12:57:09.543Z,37.30
2022-08-05T13:00:08.879Z,37.30
2022-08-05T13:02:36.030Z,37.30
2022-08-05T13:05:06.826Z,37.20
2022-08-05T13:07:59.645Z,37.30
2022-08-05T13:10:24.303Z,37.50
2022-08-05T13:12:58.233Z,37.50
2022-08-05T13:15:41.479Z,37.80
2022-08-05T13:18:23.971Z,37.90
2022-08-05T13:20:52.069Z,37.80
2022-08-05T13:23:22.699Z,37.60
2022-08-05T13:25:59.695Z,37.80
2022-08-05T13:28:29.274Z,37.80
2022-08-05T13:31:03.337Z,37.80
2022-08-05T13:34:21.195Z,37.70
2022-08-05T13:36:30.950Z,37.90
2022-08-05T13:38:58.777Z,37.90
2022-08-05T13:41:35.934Z,37.70
2022-08-05T13:44:05.820Z,37.80
2022-08-05T13:46:50.731Z,37.60
2022-08-05T13:49:22.128Z,37.90
2022-08-05T13:51:50.371Z,38.10
2022-08-05T13:54:25.006Z,38.10
2022-08-05T13:56:54.178Z,38.20
2022-08-05T13:59:25.299Z,38.00
2022-08-05T14:01:58.674Z,38.10
2022-08-05T14:04:53.419Z,38.10
2022-08-05T14:08:00.645Z,38.10
2022-08-05T14:10:30.809Z,38.00
2022-08-05T14:13:00.108Z,38.10
2022-08-05T14:16:09.043Z,38.40
2022-08-05T14:18:18.701Z,38.20
2022-08-05T14:20:54.366Z,38.30
2022-08-05T14:23:25.772Z,38.40
2022-08-05T14:25:58.464Z,38.30
2022-08-05T14:28:29.552Z,38.30
2022-08-05T14:30:59.226Z,38.50
2022-08-05T14:33:26.958Z,38.70
2022-08-05T14:35:54.932Z,38.50
2022-08-05T14:38:31.788Z,38.40
2022-08-05T14:41:05.700Z,38.40
2022-08-05T14:43:59.743Z,38.50
2022-08-05T14:46:29.792Z,38.40
2022-08-05T14:49:03.655Z,38.40
2022-08-05T14:51:42.766Z,38.40
2022-08-05T14:54:28.785Z,38.60
2022-08-05T14:56:59.314Z,38.70
2022-08-05T14:59:29.229Z,38.60
2022-08-05T15:01:58.346Z,38.60
2022-08-05T15:04:29.009Z,38.60
2022-08-05T15:06:57.223Z,38.70
2022-08-05T15:09:52.428Z,38.40
2022-08-05T15:12:16.952Z,38.30
2022-08-05T15:14:49.933Z,38.20
2022-08-05T15:17:47.303Z,38.30
2022-08-05T15:20:18.887Z,38.10
2022-08-05T15:22:54.340Z,38.20
2022-08-05T15:25:52.839Z,38.30
2022-08-05T15:28:14.813Z,38.30
2022-08-05T15:30:46.473Z,38.30
2022-08-05T15:34:04.085Z,38.30
2022-08-05T15:36:05.517Z,38.20
2022-08-05T15:38:42.066Z,38.20
2022-08-05T15:41:22.445Z,38.20
2022-08-05T15:43:54.531Z,38.40
2022-08-05T15:46:24.765Z,38.40
2022-08-05T15:49:00.810Z,38.30
2022-08-05T15:52:12.568Z,38.40
2022-08-05T15:54:35.085Z,38.20
2022-08-05T15:57:07.665Z,38.00
2022-08-05T15:59:38.112Z,37.80
2022-08-05T16:02:09.438Z,37.40
2022-08-05T16:04:37.817Z,37.30
2022-08-05T16:07:10.815Z,37.10
2022-08-05T16:09:41.516Z,36.80
2022-08-05T16:12:11.396Z,37.10
2022-08-05T16:14:40.070Z,37.00
2022-08-05T16:17:09.447Z,36.90
2022-08-05T16:20:05.217Z,37.00
2022-08-05T16:22:27.875Z,37.00
2022-08-05T16:25:05.394Z,36.80
2022-08-05T16:27:59.626Z,36.80
2022-08-05T16:30:28.859Z,36.90
2022-08-05T16:32:58.060Z,36.70
2022-08-05T16:35:28.342Z,36.60
2022-08-05T16:38:18.822Z,36.70
2022-08-05T16:40:55.236Z,36.50
2022-08-05T16:43:30.437Z,36.40
2022-08-05T16:46:04.704Z,36.30
2022-08-05T16:48:38.952Z,36.10
2022-08-05T16:51:08.764Z,36.20
2022-08-05T16:54:04.050Z,36.30
2022-08-05T16:56:31.192Z,36.30
2022-08-05T16:58:58.968Z,36.00
2022-08-05T17:01:52.549Z,36.30
2022-08-05T17:04:18.805Z,36.30
2022-08-05T17:06:53.346Z,36.30
2022-08-05T17:09:22.901Z,36.30
2022-08-05T17:11:54.777Z,36.40
2022-08-05T17:14:36.889Z,36.60
2022-08-05T17:17:14.505Z,37.00
2022-08-05T17:19:46.337Z,37.40
2022-08-05T17:22:24.631Z,37.50
2022-08-05T17:24:56.990Z,37.40
2022-08-05T17:27:33.569Z,37.10
2022-08-05T17:30:07.068Z,36.90
2022-08-05T17:32:42.163Z,36.70
2022-08-05T17:35:12.366Z,36.50
2022-08-05T17:37:45.105Z,36.40
2022-08-05T17:40:17.203Z,36.40
2022-08-05T17:42:50.776Z,36.20
2022-08-05T17:45:22.556Z,36.20
2022-08-05T17:47:56.033Z,36.10
2022-08-05T17:50:28.235Z,36.00
2022-08-05T17:53:00.197Z,35.80
2022-08-05T17:55:38.332Z,35.70
2022-08-05T17:58:12.237Z,35.50
2022-08-05T18:00:45.172Z,35.10
2022-08-05T18:03:48.408Z,35.00
2022-08-05T18:06:12.196Z,34.90
2022-08-05T18:08:45.731Z,34.70
2022-08-05T18:11:24.010Z,34.50
2022-08-05T18:14:03.686Z,34.30
2022-08-05T18:16:51.555Z,34.30
2022-08-05T18:19:23.272Z,34.10
2022-08-05T18:22:09.592Z,34.00
2022-08-05T18:24:39.979Z,34.00
2022-08-05T18:27:12.889Z,33.90
2022-08-05T18:29:51.929Z,33.80
2022-08-05T18:32:27.997Z,33.80
2022-08-05T18:34:58.051Z,33.40
2022-08-05T18:37:33.920Z,33.30
2022-08-05T18:41:03.362Z,33.20
2022-08-05T18:42:50.543Z,33.00
2022-08-05T18:45:19.935Z,32.90
2022-08-05T18:47:52.899Z,32.80
2022-08-05T18:50:45.185Z,32.70
2022-08-05T18:53:19.294Z,32.60
2022-08-05T18:55:50.536Z,32.50
2022-08-05T18:58:18.869Z,32.60
2022-08-05T19:00:55.033Z,32.50
2022-08-05T19:03:53.461Z,32.50
2022-08-05T19:06:18.996Z,32.40
2022-08-05T19:08:50.143Z,32.30
2022-08-05T19:11:27.985Z,32.30
2022-08-05T19:14:01.161Z,32.30
2022-08-05T19:16:47.153Z,32.10
2022-08-05T19:19:15.333Z,31.90
2022-08-05T19:21:48.751Z,31.80
2022-08-05T19:24:19.399Z,31.60
2022-08-05T19:27:04.379Z,31.60
2022-08-05T19:29:35.949Z,31.60
2022-08-05T19:32:11.496Z,31.50
2022-08-05T19:34:39.832Z,31.40
2022-08-05T19:37:08.488Z,31.20
2022-08-05T19:39:45.805Z,31.10
2022-08-05T19:42:35.545Z,31.10
2022-08-05T19:45:06.262Z,31.20
2022-08-05T19:47:37.201Z,31.10
2022-08-05T19:50:07.743Z,31.00
2022-08-05T19:52:38.538Z,31.00
2022-08-05T19:56:11.347Z,30.90
2022-08-05T19:58:06.682Z,30.80
2022-08-05T20:00:42.726Z,30.80
2022-08-05T20:03:11.190Z,30.80
2022-08-05T20:05:49.906Z,30.80
2022-08-05T20:08:18.528Z,30.80
2022-08-05T20:10:49.577Z,30.70
2022-08-05T20:13:18.464Z,30.70
2022-08-05T20:15:58.250Z,30.60
2022-08-05T20:18:32.759Z,30.60
2022-08-05T20:21:02.378Z,30.60
2022-08-05T20:23:39.398Z,30.50
2022-08-05T20:26:25.369Z,30.60
2022-08-05T20:28:56.229Z,30.70
2022-08-05T20:31:36.979Z,30.70
2022-08-05T20:34:12.418Z,30.80
2022-08-05T20:36:43.229Z,30.90
2022-08-05T20:39:13.566Z,30.90
2022-08-05T20:41:47.902Z,30.90
2022-08-05T20:44:30.256Z,31.00
2022-08-05T20:47:00.514Z,30.90
2022-08-05T20:49:28.534Z,31.00
2022-08-05T20:51:57.757Z,31.00
2022-08-05T20:54:43.010Z,30.90
2022-08-05T20:57:24.620Z,30.90
2022-08-05T21:00:20.168Z,30.80
2022-08-05T21:03:01.446Z,30.80
2022-08-05T21:05:47.581Z,30.60
2022-08-05T21:08:17.211Z,30.60
2022-08-05T21:10:48.440Z,30.60
2022-08-05T21:13:25.973Z,30.60
2022-08-05T21:16:06.850Z,30.60
2022-08-05T21:18:34.632Z,30.60
2022-08-05T21:21:04.067Z,30.60
2022-08-05T21:23:37.271Z,30.60
2022-08-05T21:26:08.247Z,30.60
2022-08-05T21:28:41.116Z,30.50
2022-08-05T21:31:16.085Z,30.60
2022-08-05T21:33:47.709Z,30.50
2022-08-05T21:36:27.577Z,30.60
2022-08-05T21:38:58.591Z,30.60
2022-08-05T21:41:33.880Z,30.50
2022-08-05T21:44:04.481Z,30.70
2022-08-05T21:46:34.339Z,30.70
2022-08-05T21:49:07.129Z,30.80
2022-08-05T21:52:16.619Z,30.90
2022-08-05T21:54:27.944Z,30.90
2022-08-05T21:57:28.328Z,31.00
2022-08-05T22:00:03.916Z,30.80
2022-08-05T22:02:41.805Z,30.60
2022-08-05T22:05:11.855Z,30.60
2022-08-05T22:07:58.205Z,30.60
2022-08-05T22:10:27.797Z,30.60
2022-08-05T22:14:06.050Z,30.70
2022-08-05T22:16:01.912Z,30.40
2022-08-05T22:18:35.640Z,30.10
2022-08-05T22:21:04.193Z,29.90
2022-08-05T22:24:40.593Z,29.80
2022-08-05T22:28:09.109Z,30.00
2022-08-05T22:30:17.156Z,30.00
2022-08-05T22:32:45.045Z,29.50
2022-08-05T22:35:14.087Z,29.20
2022-08-05T22:37:58.733Z,29.20
2022-08-05T22:40:30.558Z,29.10
2022-08-05T22:42:58.761Z,29.10
2022-08-05T22:45:26.671Z,29.40
2022-08-05T22:47:56.980Z,29.20
2022-08-05T22:50:26.945Z,29.00
2022-08-05T22:52:55.952Z,29.00
2022-08-05T22:55:24.826Z,29.00
2022-08-05T22:57:55.096Z,29.00
2022-08-05T23:00:23.790Z,28.90
2022-08-05T23:02:53.650Z,28.90
2022-08-05T23:05:22.478Z,29.10
2022-08-05T23:07:51.400Z,29.00
2022-08-05T23:10:23.709Z,28.90
2022-08-05T23:12:54.563Z,28.70
2022-08-05T23:15:29.522Z,28.70
2022-08-05T23:18:03.599Z,28.80
2022-08-05T23:20:37.336Z,28.80
2022-08-05T23:23:08.440Z,29.00
2022-08-05T23:25:51.329Z,29.00
2022-08-05T23:28:28.650Z,28.90
2022-08-05T23:31:16.152Z,29.00
2022-08-05T23:34:04.306Z,28.90
2022-08-05T23:36:38.738Z,28.80
2022-08-05T23:39:09.671Z,28.70
2022-08-05T23:41:48.399Z,28.80
2022-08-05T23:44:16.879Z,28.70
2022-08-05T23:46:44.588Z,28.60
2022-08-05T23:49:15.816Z,28.40
2022-08-05T23:52:05.487Z,28.40
2022-08-05T23:54:36.233Z,28.30
2022-08-05T23:57:06.827Z,28.20
2022-08-05T23:59:37.771Z,28.20
